Time,TemperatureF,DewpointF,PressureIn,WindDirection,WindDirectionDegrees,WindSpeedMPH,WindSpeedGustMPH,Humidity,HourlyPrecipIn,Conditions,Clouds,dailyrainin,SoftwareType,DateUTC
2013-11-22 00:00:00,46.8,44.6,30.36,WSW,249,1.2,0.0,92,0.00,,,0.00,WeatherDisplay:10.37,2013-11-22 05:00:00,
2013-11-22 00:01:00,46.7,44.5,30.35,WSW,249,0.0,0.0,92,0.00,,,0.00,WeatherDisplay:10.37,2013-11-22 05:01:00,
2013-11-22 00:02:00,46.7,44.5,30.35,WSW,249,1.2,1.2,92,0.00,,,0.00,WeatherDisplay:10.37,2013-11-22 05:02:00,
2013-11-22 00:07:00,46.7,44.5,30.35,WSW,248,1.2,1.2,92,0.00,,,0.00,WeatherDisplay:10.37,2013-11-22 05:07:00,
2013-11-22 00:12:00,46.7,44.5,30.35,WSW,249,0.0,0.0,92,0.00,,,0.00,WeatherDisplay:10.37,2013-11-22 05:12:00,
2013-11-22 00:17:00,46.7,44.5,30.35,WSW,249,0.0,0.0,92,0.00,,,0.00,WeatherDisplay:10.37,2013-11-22 05:17:00,
2013-11-22 00:22:00,46.6,44.4,30.35,WSW,249,1.2,1.2,92,0.00,,,0.00,WeatherDisplay:10.37,2013-11-22 05:22:00,
2013-11-22 00:27:00,46.6,44.4,30.34,WSW,248,0.0,0.0,92,0.00,,,0.00,WeatherDisplay:10.37,2013-11-22 05:27:00,
2013-11-22 00:32:00,46.7,44.5,30.34,WSW,248,0.0,0.0,92,0.00,,,0.00,WeatherDisplay:10.37,2013-11-22 05:32:00,
2013-11-22 00:37:00,46.8,44.9,30.34,WSW,248,0.0,0.0,93,0.00,,,0.00,WeatherDisplay:10.37,2013-11-22 05:37:00,
2013-11-22 00:42:00,46.9,45.0,30.34,WSW,249,0.0,0.0,93,0.00,,,0.00,WeatherDisplay:10.37,2013-11-22 05:42:00,
2013-11-22 00:47:00,46.9,45.0,30.33,WSW,249,0.0,0.0,93,0.00,,,0.00,WeatherDisplay:10.37,2013-11-22 05:47:00,
2013-11-22 00:52:00,47.0,45.1,30.33,WSW,249,0.0,0.0,93,0.00,,,0.00,WeatherDisplay:10.37,2013-11-22 05:52:00,
2013-11-22 00:57:00,47.0,45.1,30.33,WSW,249,0.0,0.0,93,0.00,,,0.00,WeatherDisplay:10.37,2013-11-22 05:57:00,
2013-11-22 01:02:00,47.0,45.1,30.33,WSW,249,0.0,0.0,93,0.00,,,0.00,WeatherDisplay:10.37,2013-11-22 06:02:00,
2013-11-22 01:07:00,47.1,45.2,30.33,WSW,250,0.0,0.0,93,0.00,,,0.00,WeatherDisplay:10.37,2013-11-22 06:07:00,
2013-11-22 01:12:00,47.2,45.6,30.33,WSW,249,1.2,0.0,94,0.00,,,0.00,WeatherDisplay:10.37,2013-11-22 06:12:00,
2013-11-22 01:17:00,47.3,45.4,30.32,WSW,250,0.0,0.0,93,0.00,,,0.00,WeatherDisplay:10.37,2013-11-22 06:17:00,
2013-11-22 01:22:00,47.3,45.4,30.32,WSW,249,0.0,0.0,93,0.00,,,0.00,WeatherDisplay:10.37,2013-11-22 06:22:00,
2013-11-22 01:27:00,47.4,45.5,30.32,WSW,250,0.0,0.0,93,0.00,,,0.00,WeatherDisplay:10.37,2013-11-22 06:27:00,
2013-11-22 01:32:00,47.4,45.5,30.32,WSW,249,0.0,0.0,93,0.00,,,0.00,WeatherDisplay:10.37,2013-11-22 06:32:00,
2013-11-22 01:37:00,47.4,45.5,30.31,WSW,248,0.0,0.0,93,0.00,,,0.00,WeatherDisplay:10.37,2013-11-22 06:37:00,
2013-11-22 01:42:00,47.5,45.9,30.31,WSW,249,0.0,0.0,94,0.00,,,0.00,WeatherDisplay:10.37,2013-11-22 06:42:00,
2013-11-22 01:47:00,47.6,46.0,30.31,WSW,249,0.0,0.0,94,0.00,,,0.00,WeatherDisplay:10.37,2013-11-22 06:47:00,
2013-11-22 01:52:00,47.7,46.1,30.31,WSW,250,0.0,0.0,94,0.00,,,0.00,WeatherDisplay:10.37,2013-11-22 06:52:00,
2013-11-22 01:57:00,47.6,45.7,30.31,WSW,250,0.0,0.0,93,0.00,,,0.00,WeatherDisplay:10.37,2013-11-22 06:57:00,
2013-11-22 02:02:00,47.6,46.0,30.31,WSW,250,0.0,0.0,94,0.00,,,0.00,WeatherDisplay:10.37,2013-11-22 07:02:00,
2013-11-22 02:07:00,47.6,45.7,30.31,WSW,248,1.2,1.2,93,0.00,,,0.00,WeatherDisplay:10.37,2013-11-22 07:07:00,
2013-11-22 02:12:00,47.5,45.6,30.30,WSW,250,0.0,0.0,93,0.00,,,0.00,WeatherDisplay:10.37,2013-11-22 07:12:00,
2013-11-22 02:17:00,47.4,45.5,30.30,WSW,250,0.0,0.0,93,0.00,,,0.00,WeatherDisplay:10.37,2013-11-22 07:17:00,
2013-11-22 02:22:00,47.3,45.4,30.30,WSW,250,0.0,0.0,93,0.00,,,0.00,WeatherDisplay:10.37,2013-11-22 07:22:00,
2013-11-22 02:27:00,47.2,45.3,30.30,West,259,1.2,1.2,93,0.00,,,0.00,WeatherDisplay:10.37,2013-11-22 07:27:00,
2013-11-22 02:32:00,47.1,45.2,30.30,West,259,0.0,0.0,93,0.00,,,0.00,WeatherDisplay:10.37,2013-11-22 07:32:00,
2013-11-22 02:37:00,47.1,45.2,30.30,West,259,0.0,0.0,93,0.00,,,0.00,WeatherDisplay:10.37,2013-11-22 07:37:00,
2013-11-22 02:42:00,47.1,45.2,30.30,West,259,0.0,0.0,93,0.00,,,0.00,WeatherDisplay:10.37,2013-11-22 07:42:00,
2013-11-22 02:47:00,47.1,45.2,30.30,West,259,0.0,0.0,93,0.00,,,0.00,WeatherDisplay:10.37,2013-11-22 07:47:00,
2013-11-22 02:52:00,47.1,45.2,30.30,WSW,258,0.0,0.0,93,0.00,,,0.00,WeatherDisplay:10.37,2013-11-22 07:52:00,
2013-11-22 02:57:00,47.2,45.3,30.30,West,259,0.0,0.0,93,0.00,,,0.00,WeatherDisplay:10.37,2013-11-22 07:57:00,
2013-11-22 03:02:00,47.2,45.3,30.30,West,259,0.0,0.0,93,0.00,,,0.00,WeatherDisplay:10.37,2013-11-22 08:02:00,
2013-11-22 03:07:00,47.2,45.3,30.30,West,259,0.0,0.0,93,0.00,,,0.00,WeatherDisplay:10.37,2013-11-22 08:07:00,
2013-11-22 03:12:00,47.2,45.3,30.30,West,259,0.0,0.0,93,0.00,,,0.00,WeatherDisplay:10.37,2013-11-22 08:12:00,
2013-11-22 03:17:00,47.2,45.3,30.30,West,259,0.0,0.0,93,0.00,,,0.00,WeatherDisplay:10.37,2013-11-22 08:17:00,
2013-11-22 03:22:00,47.2,45.6,30.29,West,259,0.0,0.0,94,0.00,,,0.00,WeatherDisplay:10.37,2013-11-22 08:22:00,
2013-11-22 03:27:00,47.3,45.7,30.29,West,259,0.0,0.0,94,0.00,,,0.00,WeatherDisplay:10.37,2013-11-22 08:27:00,
2013-11-22 03:32:00,47.4,45.8,30.29,WSW,257,0.0,0.0,94,0.00,,,0.00,WeatherDisplay:10.37,2013-11-22 08:32:00,
2013-11-22 03:37:00,47.5,45.9,30.29,WSW,257,0.0,0.0,94,0.00,,,0.00,WeatherDisplay:10.37,2013-11-22 08:37:00,
2013-11-22 03:42:00,47.5,45.9,30.29,West,259,0.0,0.0,94,0.00,,,0.00,WeatherDisplay:10.37,2013-11-22 08:42:00,
2013-11-22 03:47:00,47.5,45.9,30.28,West,259,0.0,0.0,94,0.00,,,0.00,WeatherDisplay:10.37,2013-11-22 08:47:00,
2013-11-22 03:52:00,47.5,45.9,30.28,WSW,257,0.0,0.0,94,0.00,,,0.00,WeatherDisplay:10.37,2013-11-22 08:52:00,
2013-11-22 03:57:00,47.5,45.9,30.28,WSW,257,0.0,0.0,94,0.00,,,0.00,WeatherDisplay:10.37,2013-11-22 08:57:00,
2013-11-22 04:02:00,47.4,45.8,30.28,WSW,257,0.0,0.0,94,0.00,,,0.00,WeatherDisplay:10.37,2013-11-22 09:02:00,
2013-11-22 04:07:00,47.3,45.7,30.29,WSW,257,0.0,0.0,94,0.00,,,0.00,WeatherDisplay:10.37,2013-11-22 09:07:00,
2013-11-22 04:12:00,47.3,45.7,30.29,WSW,257,0.0,0.0,94,0.00,,,0.00,WeatherDisplay:10.37,2013-11-22 09:12:00,
2013-11-22 04:17:00,47.3,45.7,30.29,WSW,257,0.0,0.0,94,0.00,,,0.00,WeatherDisplay:10.37,2013-11-22 09:17:00,
2013-11-22 04:22:00,47.3,45.7,30.28,WSW,257,0.0,0.0,94,0.00,,,0.00,WeatherDisplay:10.37,2013-11-22 09:22:00,
2013-11-22 04:27:00,47.3,45.7,30.28,WSW,257,0.0,0.0,94,0.00,,,0.00,WeatherDisplay:10.37,2013-11-22 09:27:00,
2013-11-22 04:32:00,47.3,45.7,30.29,WSW,257,0.0,0.0,94,0.00,,,0.00,WeatherDisplay:10.37,2013-11-22 09:32:00,
2013-11-22 04:37:00,47.3,45.7,30.29,WSW,257,0.0,0.0,94,0.00,,,0.00,WeatherDisplay:10.37,2013-11-22 09:37:00,
2013-11-22 04:42:00,47.3,45.7,30.29,WSW,257,0.0,0.0,94,0.00,,,0.00,WeatherDisplay:10.37,2013-11-22 09:42:00,
2013-11-22 04:48:00,47.4,45.8,30.29,WSW,257,0.0,0.0,94,0.00,,,0.00,WeatherDisplay:10.37,2013-11-22 09:48:00,
2013-11-22 04:53:00,47.5,45.9,30.29,WSW,257,0.0,0.0,94,0.00,,,0.00,WeatherDisplay:10.37,2013-11-22 09:53:00,
2013-11-22 04:58:00,47.6,46.0,30.28,WSW,257,0.0,0.0,94,0.00,,,0.00,WeatherDisplay:10.37,2013-11-22 09:58:00,
2013-11-22 05:03:00,47.7,46.1,30.28,WSW,257,0.0,0.0,94,0.00,,,0.00,WeatherDisplay:10.37,2013-11-22 10:03:00,
2013-11-22 05:08:00,47.7,46.1,30.29,WSW,257,0.0,0.0,94,0.00,,,0.00,WeatherDisplay:10.37,2013-11-22 10:08:00,
2013-11-22 05:13:00,47.5,45.9,30.29,WSW,257,0.0,0.0,94,0.00,,,0.00,WeatherDisplay:10.37,2013-11-22 10:13:00,
2013-11-22 05:18:00,47.5,45.9,30.29,West,259,0.0,0.0,94,0.00,,,0.00,WeatherDisplay:10.37,2013-11-22 10:18:00,
2013-11-22 05:23:00,47.6,46.0,30.29,WSW,257,0.0,0.0,94,0.00,,,0.00,WeatherDisplay:10.37,2013-11-22 10:23:00,
2013-11-22 05:28:00,47.6,46.0,30.29,WSW,257,0.0,0.0,94,0.00,,,0.00,WeatherDisplay:10.37,2013-11-22 10:28:00,
2013-11-22 05:33:00,47.7,46.1,30.29,WSW,257,0.0,0.0,94,0.00,,,0.00,WeatherDisplay:10.37,2013-11-22 10:33:00,
2013-11-22 05:38:00,47.8,46.2,30.29,WSW,257,0.0,0.0,94,0.00,,,0.00,WeatherDisplay:10.37,2013-11-22 10:38:00,
2013-11-22 05:43:00,47.9,46.3,30.28,WSW,257,0.0,0.0,94,0.00,,,0.00,WeatherDisplay:10.37,2013-11-22 10:43:00,
2013-11-22 05:48:00,47.9,46.3,30.28,WSW,257,0.0,0.0,94,0.00,,,0.00,WeatherDisplay:10.37,2013-11-22 10:48:00,
2013-11-22 05:53:00,47.9,46.3,30.28,WSW,257,0.0,0.0,94,0.00,,,0.00,WeatherDisplay:10.37,2013-11-22 10:53:00,
2013-11-22 05:58:00,47.9,46.3,30.28,WSW,257,0.0,0.0,94,0.00,,,0.00,WeatherDisplay:10.37,2013-11-22 10:58:00,
2013-11-22 06:03:00,47.9,46.3,30.27,West,259,0.0,0.0,94,0.00,,,0.00,WeatherDisplay:10.37,2013-11-22 11:03:00,
2013-11-22 06:08:00,47.8,46.2,30.27,West,259,0.0,0.0,94,0.00,,,0.00,WeatherDisplay:10.37,2013-11-22 11:08:00,
2013-11-22 06:13:00,47.6,45.7,30.28,West,259,0.0,0.0,93,0.00,,,0.00,WeatherDisplay:10.37,2013-11-22 11:13:00,
2013-11-22 06:18:00,47.5,45.9,30.28,West,259,0.0,0.0,94,0.00,,,0.00,WeatherDisplay:10.37,2013-11-22 11:18:00,
2013-11-22 06:23:00,47.4,45.8,30.27,West,259,0.0,0.0,94,0.00,,,0.00,WeatherDisplay:10.37,2013-11-22 11:23:00,
2013-11-22 06:28:00,47.3,45.7,30.28,WSW,258,0.0,0.0,94,0.00,,,0.00,WeatherDisplay:10.37,2013-11-22 11:28:00,
2013-11-22 06:33:00,47.4,45.8,30.28,West,259,0.0,0.0,94,0.00,,,0.00,WeatherDisplay:10.37,2013-11-22 11:33:00,
2013-11-22 06:38:00,47.5,46.1,30.28,West,259,0.0,0.0,95,0.00,,,0.00,WeatherDisplay:10.37,2013-11-22 11:38:00,
2013-11-22 06:43:00,47.6,46.2,30.28,WSW,258,0.0,0.0,95,0.00,,,0.00,WeatherDisplay:10.37,2013-11-22 11:43:00,
2013-11-22 06:48:00,47.7,46.3,30.28,WSW,258,0.0,0.0,95,0.00,,,0.00,WeatherDisplay:10.37,2013-11-22 11:48:00,
2013-11-22 06:53:00,47.8,46.4,30.28,West,259,0.0,0.0,95,0.00,,,0.00,WeatherDisplay:10.37,2013-11-22 11:53:00,
2013-11-22 06:58:00,47.9,46.5,30.29,WSW,258,0.0,0.0,95,0.00,,,0.00,WeatherDisplay:10.37,2013-11-22 11:58:00,
2013-11-22 07:03:00,48.0,46.6,30.28,West,259,0.0,0.0,95,0.00,CLR,,0.00,WeatherDisplay:10.37,2013-11-22 12:03:00,
2013-11-22 07:08:00,48.1,46.7,30.29,West,259,0.0,0.0,95,0.00,CLR,,0.00,WeatherDisplay:10.37,2013-11-22 12:08:00,
2013-11-22 07:13:00,48.1,46.7,30.29,West,259,0.0,0.0,95,0.00,CLR,,0.00,WeatherDisplay:10.37,2013-11-22 12:13:00,
2013-11-22 07:18:00,48.2,46.8,30.28,West,259,0.0,0.0,95,0.00,CLR,,0.00,WeatherDisplay:10.37,2013-11-22 12:18:00,
2013-11-22 07:23:00,48.4,47.0,30.28,WNW,283,0.0,0.0,95,0.00,CLR,,0.00,WeatherDisplay:10.37,2013-11-22 12:23:00,
2013-11-22 07:28:00,48.5,47.1,30.29,WNW,282,0.0,0.0,95,0.00,CLR,,0.00,WeatherDisplay:10.37,2013-11-22 12:28:00,
2013-11-22 07:33:00,48.6,47.2,30.29,WNW,283,0.0,0.0,95,0.00,CLR,,0.00,WeatherDisplay:10.37,2013-11-22 12:33:00,
2013-11-22 07:38:00,48.8,47.4,30.28,WNW,282,0.0,0.0,95,0.00,CLR,,0.00,WeatherDisplay:10.37,2013-11-22 12:38:00,
2013-11-22 07:43:00,48.9,47.5,30.27,WNW,282,0.0,0.0,95,0.00,CLR,,0.00,WeatherDisplay:10.37,2013-11-22 12:43:00,
2013-11-22 07:48:00,49.2,47.8,30.27,WNW,282,0.0,0.0,95,0.00,CLR,,0.00,WeatherDisplay:10.37,2013-11-22 12:48:00,
2013-11-22 07:53:00,49.4,48.0,30.28,WNW,282,0.0,0.0,95,0.00,CLR,,0.00,WeatherDisplay:10.37,2013-11-22 12:53:00,
2013-11-22 07:58:00,49.7,48.3,30.28,WNW,282,0.0,0.0,95,0.00,CLR,,0.00,WeatherDisplay:10.37,2013-11-22 12:58:00,
2013-11-22 08:03:00,49.9,48.2,30.28,WNW,283,0.0,0.0,94,0.00,CLR,,0.00,WeatherDisplay:10.37,2013-11-22 13:03:00,
2013-11-22 08:08:00,50.3,48.6,30.27,WNW,283,0.0,0.0,94,0.00,CLR,,0.00,WeatherDisplay:10.37,2013-11-22 13:08:00,
2013-11-22 08:13:00,50.6,48.9,30.28,WNW,282,0.0,0.0,94,0.00,CLR,,0.00,WeatherDisplay:10.37,2013-11-22 13:13:00,
2013-11-22 08:18:00,51.0,49.0,30.28,WNW,282,0.0,0.0,93,0.00,CLR,,0.00,WeatherDisplay:10.37,2013-11-22 13:18:00,
2013-11-22 08:23:00,51.4,49.4,30.28,WNW,282,0.0,0.0,93,0.00,CLR,,0.00,WeatherDisplay:10.37,2013-11-22 13:23:00,
2013-11-22 08:28:00,51.8,49.8,30.28,WNW,282,0.0,0.0,93,0.00,CLR,,0.00,WeatherDisplay:10.37,2013-11-22 13:28:00,
2013-11-22 08:33:00,52.2,49.9,30.28,WNW,283,0.0,0.0,92,0.00,CLR,,0.00,WeatherDisplay:10.37,2013-11-22 13:33:00,
2013-11-22 08:38:00,52.6,50.3,30.28,WNW,282,0.0,0.0,92,0.00,CLR,,0.00,WeatherDisplay:10.37,2013-11-22 13:38:00,
2013-11-22 08:43:00,53.0,50.4,30.28,WNW,282,0.0,0.0,91,0.00,CLR,,0.00,WeatherDisplay:10.37,2013-11-22 13:43:00,
2013-11-22 08:48:00,53.4,50.8,30.28,WNW,283,0.0,0.0,91,0.00,CLR,,0.00,WeatherDisplay:10.37,2013-11-22 13:48:00,
2013-11-22 08:53:00,53.9,51.3,30.28,WNW,283,0.0,0.0,91,0.00,CLR,,0.00,WeatherDisplay:10.37,2013-11-22 13:53:00,
2013-11-22 08:58:00,54.3,51.4,30.28,WNW,283,1.0,0.0,90,0.00,CLR,,0.00,WeatherDisplay:10.37,2013-11-22 13:58:00,
2013-11-22 09:03:00,54.7,51.5,30.28,WNW,283,1.2,1.2,89,0.00,CLR,,0.00,WeatherDisplay:10.37,2013-11-22 14:03:00,
2013-11-22 09:08:00,55.2,52.0,30.28,WNW,282,0.0,0.0,89,0.00,CLR,,0.00,WeatherDisplay:10.37,2013-11-22 14:08:00,
2013-11-22 09:13:00,55.7,52.2,30.27,WNW,283,0.0,0.0,88,0.00,CLR,,0.00,WeatherDisplay:10.37,2013-11-22 14:13:00,
2013-11-22 09:18:00,56.2,52.4,30.27,WNW,283,0.0,0.1,87,0.00,CLR,,0.00,WeatherDisplay:10.37,2013-11-22 14:18:00,
2013-11-22 09:23:00,56.6,52.5,30.27,WNW,282,0.0,0.0,86,0.00,CLR,,0.00,WeatherDisplay:10.37,2013-11-22 14:23:00,
2013-11-22 09:28:00,57.1,52.6,30.27,WNW,283,1.2,0.0,85,0.00,CLR,,0.00,WeatherDisplay:10.37,2013-11-22 14:28:00,
2013-11-22 09:33:00,57.5,52.7,30.27,WNW,285,1.2,1.2,84,0.00,CLR,,0.00,WeatherDisplay:10.37,2013-11-22 14:33:00,
2013-11-22 09:38:00,57.8,53.0,30.27,WNW,286,1.2,1.2,84,0.00,CLR,,0.00,WeatherDisplay:10.37,2013-11-22 14:38:00,
2013-11-22 09:43:00,58.2,53.1,30.27,WNW,296,2.3,2.3,83,0.00,CLR,,0.00,WeatherDisplay:10.37,2013-11-22 14:43:00,
2013-11-22 09:48:00,58.4,52.9,30.27,WNW,295,1.2,0.0,82,0.00,CLR,,0.00,WeatherDisplay:10.37,2013-11-22 14:48:00,
2013-11-22 09:53:00,58.5,52.7,30.27,WNW,286,3.5,3.5,81,0.00,CLR,,0.00,WeatherDisplay:10.37,2013-11-22 14:53:00,
2013-11-22 09:58:00,58.4,52.9,30.27,WNW,293,1.2,0.0,82,0.00,CLR,,0.00,WeatherDisplay:10.37,2013-11-22 14:58:00,
2013-11-22 10:03:00,58.6,53.1,30.27,WNW,302,0.0,0.1,82,0.00,CLR,,0.00,WeatherDisplay:10.37,2013-11-22 15:03:00,
2013-11-22 10:08:00,59.0,53.2,30.27,WSW,255,2.3,2.3,81,0.00,CLR,,0.00,WeatherDisplay:10.37,2013-11-22 15:08:00,
2013-11-22 10:13:00,59.1,52.9,30.27,WSW,258,2.0,2.0,80,0.00,CLR,,0.00,WeatherDisplay:10.37,2013-11-22 15:13:00,
2013-11-22 10:18:00,59.2,53.4,30.26,WSW,253,1.2,1.2,81,0.00,CLR,,0.00,WeatherDisplay:10.37,2013-11-22 15:18:00,
2013-11-22 10:24:00,59.3,53.1,30.26,WSW,254,0.0,0.4,80,0.00,CLR,,0.00,WeatherDisplay:10.37,2013-11-22 15:24:00,
2013-11-22 10:29:00,59.4,53.6,30.26,West,272,3.5,0.0,81,0.00,CLR,,0.00,WeatherDisplay:10.37,2013-11-22 15:29:00,
2013-11-22 10:34:00,59.5,53.3,30.26,West,279,3.5,3.5,80,0.00,CLR,,0.00,WeatherDisplay:10.37,2013-11-22 15:34:00,
2013-11-22 10:39:00,59.4,53.2,30.26,WNW,285,2.3,2.3,80,0.00,CLR,,0.00,WeatherDisplay:10.37,2013-11-22 15:39:00,
2013-11-22 10:44:00,59.4,53.2,30.26,WSW,242,3.5,3.5,80,0.00,CLR,,0.00,WeatherDisplay:10.37,2013-11-22 15:44:00,
2013-11-22 10:49:00,59.3,53.5,30.27,WSW,239,3.5,3.5,81,0.00,CLR,,0.00,WeatherDisplay:10.37,2013-11-22 15:49:00,
2013-11-22 10:54:00,59.1,53.3,30.26,West,267,6.9,6.9,81,0.00,CLR,,0.00,WeatherDisplay:10.37,2013-11-22 15:54:00,
2013-11-22 10:59:00,59.1,53.3,30.26,WSW,242,3.5,3.5,81,0.00,CLR,,0.00,WeatherDisplay:10.37,2013-11-22 15:59:00,
2013-11-22 11:04:00,58.9,53.1,30.26,West,269,3.5,3.5,81,0.00,CLR,,0.00,WeatherDisplay:10.37,2013-11-22 16:04:00,
2013-11-22 11:09:00,58.7,53.2,30.25,WSW,253,3.5,3.5,82,0.00,CLR,,0.00,WeatherDisplay:10.37,2013-11-22 16:09:00,
2013-11-22 11:14:00,58.8,53.6,30.25,West,268,1.2,1.2,83,0.00,CLR,,0.00,WeatherDisplay:10.37,2013-11-22 16:14:00,
2013-11-22 11:19:00,59.0,53.5,30.24,WSW,249,3.0,3.0,82,0.00,CLR,,0.00,WeatherDisplay:10.37,2013-11-22 16:19:00,
2013-11-22 11:24:00,59.0,53.5,30.24,WSW,248,3.5,3.5,82,0.00,CLR,,0.00,WeatherDisplay:10.37,2013-11-22 16:24:00,
2013-11-22 11:29:00,59.1,53.6,30.24,WSW,253,2.3,2.3,82,0.00,CLR,,0.00,WeatherDisplay:10.37,2013-11-22 16:29:00,
2013-11-22 11:34:00,59.3,53.5,30.24,NW,307,5.8,5.8,81,0.00,CLR,,0.00,WeatherDisplay:10.37,2013-11-22 16:34:00,
2013-11-22 11:39:00,59.1,53.3,30.24,West,268,9.2,9.2,81,0.00,CLR,,0.00,WeatherDisplay:10.37,2013-11-22 16:39:00,
2013-11-22 11:44:00,58.9,53.4,30.24,West,264,3.5,3.5,82,0.00,CLR,,0.00,WeatherDisplay:10.37,2013-11-22 16:44:00,
2013-11-22 11:49:00,58.9,53.4,30.24,West,260,4.6,4.6,82,0.00,CLR,,0.00,WeatherDisplay:10.37,2013-11-22 16:49:00,
2013-11-22 11:54:00,58.9,53.4,30.24,WSW,256,9.2,9.2,82,0.00,CLR,,0.00,WeatherDisplay:10.37,2013-11-22 16:54:00,
2013-11-22 11:59:00,58.9,53.7,30.23,West,267,4.0,4.0,83,0.00,CLR,,0.00,WeatherDisplay:10.37,2013-11-22 16:59:00,
2013-11-22 12:04:00,58.8,53.6,30.23,West,266,6.9,6.9,83,0.00,CLR,,0.00,WeatherDisplay:10.37,2013-11-22 17:04:00,
2013-11-22 12:09:00,58.7,53.9,30.23,WSW,245,5.8,5.8,84,0.00,CLR,,0.00,WeatherDisplay:10.37,2013-11-22 17:09:00,
2013-11-22 12:14:00,58.5,54.3,30.23,WNW,283,5.8,5.8,86,0.00,CLR,,0.00,WeatherDisplay:10.37,2013-11-22 17:14:00,
2013-11-22 12:19:00,58.2,54.0,30.23,WNW,296,2.3,2.3,86,0.00,CLR,,0.00,WeatherDisplay:10.37,2013-11-22 17:19:00,
2013-11-22 12:24:00,57.7,53.9,30.23,WNW,300,3.5,3.5,87,0.00,CLR,,0.00,WeatherDisplay:10.37,2013-11-22 17:24:00,
2013-11-22 12:29:00,57.5,53.7,30.23,WNW,300,3.5,3.5,87,0.00,CLR,,0.00,WeatherDisplay:10.37,2013-11-22 17:29:00,
2013-11-22 12:34:00,57.3,53.5,30.22,WNW,294,1.2,0.0,87,0.00,CLR,,0.00,WeatherDisplay:10.37,2013-11-22 17:34:00,
2013-11-22 12:39:00,57.2,53.4,30.22,WNW,293,3.5,3.5,87,0.00,CLR,,0.00,WeatherDisplay:10.37,2013-11-22 17:39:00,
2013-11-22 12:44:00,57.2,54.0,30.22,West,278,4.0,4.0,89,0.00,CLR,,0.00,WeatherDisplay:10.37,2013-11-22 17:44:00,
2013-11-22 12:49:00,56.9,54.0,30.22,WNW,300,2.0,2.0,90,0.00,CLR,,0.00,WeatherDisplay:10.37,2013-11-22 17:49:00,
2013-11-22 12:54:00,56.7,54.1,30.22,West,264,2.3,2.3,91,0.00,CLR,,0.00,WeatherDisplay:10.37,2013-11-22 17:54:00,
2013-11-22 12:59:00,56.4,54.1,30.22,WSW,254,2.3,2.3,92,0.01,RA,,0.01,WeatherDisplay:10.37,2013-11-22 17:59:00,
2013-11-22 13:04:00,56.1,54.1,30.22,West,263,2.3,2.3,93,0.01,RA,,0.01,WeatherDisplay:10.37,2013-11-22 18:04:00,
2013-11-22 13:09:00,55.8,53.8,30.22,WNW,296,2.3,2.3,93,0.02,RA,,0.02,WeatherDisplay:10.37,2013-11-22 18:09:00,
2013-11-22 13:14:00,55.7,54.0,30.22,West,261,1.2,0.0,94,0.02,RA,,0.02,WeatherDisplay:10.37,2013-11-22 18:14:00,
2013-11-22 13:19:00,55.6,53.9,30.21,West,261,0.0,0.0,94,0.02,CLR,,0.02,WeatherDisplay:10.37,2013-11-22 18:19:00,
2013-11-22 13:24:00,55.6,54.2,30.21,West,267,0.0,0.0,95,0.02,CLR,,0.02,WeatherDisplay:10.37,2013-11-22 18:24:00,
2013-11-22 13:29:00,55.6,54.2,30.20,West,264,0.0,0.3,95,0.02,CLR,,0.02,WeatherDisplay:10.37,2013-11-22 18:29:00,
2013-11-22 13:34:00,55.5,53.8,30.20,WSW,238,2.3,2.3,94,0.02,CLR,,0.02,WeatherDisplay:10.37,2013-11-22 18:34:00,
2013-11-22 13:39:00,55.4,53.7,30.20,WSW,257,3.5,3.5,94,0.02,CLR,,0.02,WeatherDisplay:10.37,2013-11-22 18:39:00,
2013-11-22 13:44:00,55.3,53.6,30.20,WSW,244,3.5,3.5,94,0.02,CLR,,0.02,WeatherDisplay:10.37,2013-11-22 18:44:00,
2013-11-22 13:49:00,55.3,53.6,30.20,WSW,251,3.5,3.5,94,0.02,CLR,,0.02,WeatherDisplay:10.37,2013-11-22 18:49:00,
2013-11-22 13:54:00,55.4,54.0,30.19,West,280,1.2,1.2,95,0.03,RA,,0.03,WeatherDisplay:10.37,2013-11-22 18:54:00,
2013-11-22 13:59:00,55.4,54.0,30.19,WSW,254,2.3,2.3,95,0.02,RA,,0.03,WeatherDisplay:10.37,2013-11-22 18:59:00,
2013-11-22 14:04:00,55.3,53.9,30.19,WSW,257,1.2,1.2,95,0.02,CLR,,0.03,WeatherDisplay:10.37,2013-11-22 19:04:00,
2013-11-22 14:09:00,55.2,53.8,30.19,WSW,249,3.5,3.5,95,0.01,CLR,,0.03,WeatherDisplay:10.37,2013-11-22 19:09:00,
2013-11-22 14:14:00,55.1,53.7,30.19,WSW,241,2.3,2.3,95,0.01,CLR,,0.03,WeatherDisplay:10.37,2013-11-22 19:14:00,
2013-11-22 14:19:00,55.0,53.9,30.19,WSW,257,1.2,1.2,96,0.01,CLR,,0.03,WeatherDisplay:10.37,2013-11-22 19:19:00,
2013-11-22 14:24:00,54.9,53.8,30.19,WSW,255,2.0,2.0,96,0.01,CLR,,0.03,WeatherDisplay:10.37,2013-11-22 19:24:00,
2013-11-22 14:29:00,54.8,53.7,30.19,WSW,240,3.5,3.5,96,0.02,RA,,0.04,WeatherDisplay:10.37,2013-11-22 19:29:00,
2013-11-22 14:34:00,54.7,53.6,30.19,WSW,241,2.0,2.0,96,0.02,RA,,0.04,WeatherDisplay:10.37,2013-11-22 19:34:00,
2013-11-22 14:39:00,54.6,53.5,30.18,WSW,257,1.2,1.2,96,0.02,CLR,,0.04,WeatherDisplay:10.37,2013-11-22 19:39:00,
2013-11-22 14:44:00,54.7,53.6,30.18,WNW,291,1.2,0.0,96,0.02,CLR,,0.04,WeatherDisplay:10.37,2013-11-22 19:44:00,
2013-11-22 14:49:00,54.7,53.6,30.18,West,267,2.3,2.3,96,0.02,CLR,,0.04,WeatherDisplay:10.37,2013-11-22 19:49:00,
2013-11-22 14:54:00,54.7,53.9,30.18,WNW,285,0.0,0.4,97,0.01,CLR,,0.04,WeatherDisplay:10.37,2013-11-22 19:54:00,
2013-11-22 15:00:00,54.7,53.9,30.18,WSW,251,2.3,2.3,97,0.01,CLR,,0.04,WeatherDisplay:10.37,2013-11-22 20:00:00,
2013-11-22 15:05:00,54.7,53.9,30.18,WSW,258,2.3,2.3,97,0.01,CLR,,0.04,WeatherDisplay:10.37,2013-11-22 20:05:00,
2013-11-22 15:10:00,54.7,53.9,30.18,West,266,1.0,4.0,97,0.00,CLR,,0.04,WeatherDisplay:10.37,2013-11-22 20:10:00,
2013-11-22 15:15:00,54.7,53.9,30.18,WNW,283,1.0,2.0,97,0.00,CLR,,0.04,WeatherDisplay:10.37,2013-11-22 20:15:00,
2013-11-22 15:20:00,54.7,53.9,30.18,WSW,258,1.2,1.2,97,0.01,CLR,,0.04,WeatherDisplay:10.37,2013-11-22 20:20:00,
2013-11-22 15:25:00,54.6,53.8,30.18,West,274,0.0,1.0,97,0.00,CLR,,0.04,WeatherDisplay:10.37,2013-11-22 20:25:00,
2013-11-22 15:30:00,54.6,53.8,30.18,WNW,284,0.0,1.0,97,0.00,CLR,,0.04,WeatherDisplay:10.37,2013-11-22 20:30:00,
2013-11-22 15:35:00,54.6,53.8,30.18,WNW,288,0.0,0.0,97,0.00,CLR,,0.04,WeatherDisplay:10.37,2013-11-22 20:35:00,
2013-11-22 15:40:00,54.6,53.8,30.18,West,269,1.2,1.2,97,0.00,CLR,,0.04,WeatherDisplay:10.37,2013-11-22 20:40:00,
2013-11-22 15:45:00,54.4,53.3,30.18,West,276,3.5,3.5,96,0.01,RA,,0.05,WeatherDisplay:10.37,2013-11-22 20:45:00,
2013-11-22 15:50:00,54.4,53.3,30.18,WSW,257,2.3,2.3,96,0.01,RA,,0.05,WeatherDisplay:10.37,2013-11-22 20:50:00,
2013-11-22 15:55:00,54.3,53.2,30.18,WSW,250,3.5,3.5,96,0.01,CLR,,0.05,WeatherDisplay:10.37,2013-11-22 20:55:00,
2013-11-22 16:00:00,54.3,53.2,30.18,WSW,254,2.3,2.3,96,0.01,CLR,,0.05,WeatherDisplay:10.37,2013-11-22 21:00:00,
2013-11-22 16:05:00,54.3,53.2,30.18,WSW,249,2.3,2.3,96,0.01,CLR,,0.05,WeatherDisplay:10.37,2013-11-22 21:05:00,
2013-11-22 16:10:00,54.3,53.2,30.17,West,268,1.2,1.2,96,0.01,CLR,,0.05,WeatherDisplay:10.37,2013-11-22 21:10:00,
2013-11-22 16:15:00,54.2,53.1,30.17,SW,232,3.5,3.5,96,0.01,CLR,,0.05,WeatherDisplay:10.37,2013-11-22 21:15:00,
2013-11-22 16:20:00,54.3,53.2,30.17,WSW,256,0.0,0.0,96,0.01,CLR,,0.05,WeatherDisplay:10.37,2013-11-22 21:20:00,
2013-11-22 16:25:00,54.2,53.1,30.17,WSW,243,1.2,1.2,96,0.01,CLR,,0.05,WeatherDisplay:10.37,2013-11-22 21:25:00,
2013-11-22 16:30:00,54.2,53.1,30.17,WNW,291,1.2,1.2,96,0.01,CLR,,0.05,WeatherDisplay:10.37,2013-11-22 21:30:00,
2013-11-22 16:35:00,54.2,53.1,30.17,WSW,249,2.3,2.3,96,0.01,CLR,,0.05,WeatherDisplay:10.37,2013-11-22 21:35:00,
2013-11-22 16:40:00,54.1,53.0,30.17,WSW,250,2.3,2.3,96,0.01,CLR,,0.05,WeatherDisplay:10.37,2013-11-22 21:40:00,
2013-11-22 16:45:00,54.1,53.3,30.17,West,277,0.0,0.0,97,0.01,RA,,0.06,WeatherDisplay:10.37,2013-11-22 21:45:00,
2013-11-22 16:50:00,54.1,53.3,30.17,WNW,285,1.2,1.2,97,0.01,RA,,0.06,WeatherDisplay:10.37,2013-11-22 21:50:00,
2013-11-22 16:55:00,54.1,53.3,30.17,West,267,2.3,2.3,97,0.01,CLR,,0.06,WeatherDisplay:10.37,2013-11-22 21:55:00,
2013-11-22 17:00:00,54.1,53.3,30.17,West,269,0.0,0.0,97,0.01,CLR,,0.06,WeatherDisplay:10.37,2013-11-22 22:00:00,
2013-11-22 17:05:00,54.0,53.2,30.16,West,267,2.3,2.3,97,0.01,CLR,,0.06,WeatherDisplay:10.37,2013-11-22 22:05:00,
2013-11-22 17:10:00,54.0,53.2,30.16,WSW,250,1.2,0.0,97,0.01,CLR,,0.06,WeatherDisplay:10.37,2013-11-22 22:10:00,
2013-11-22 17:15:00,54.0,53.2,30.16,WSW,250,3.5,3.5,97,0.01,CLR,,0.06,WeatherDisplay:10.37,2013-11-22 22:15:00,
2013-11-22 17:20:00,54.0,53.2,30.16,SW,234,3.5,3.5,97,0.01,CLR,,0.06,WeatherDisplay:10.37,2013-11-22 22:20:00,
2013-11-22 17:25:00,54.0,53.2,30.16,SW,229,2.3,2.3,97,0.01,CLR,,0.06,WeatherDisplay:10.37,2013-11-22 22:25:00,
2013-11-22 17:30:00,54.0,53.2,30.16,West,261,2.3,2.3,97,0.01,CLR,,0.06,WeatherDisplay:10.37,2013-11-22 22:30:00,
2013-11-22 17:35:00,53.9,53.1,30.16,WSW,256,1.2,1.2,97,0.01,CLR,,0.06,WeatherDisplay:10.37,2013-11-22 22:35:00,
2013-11-22 17:40:00,53.9,53.1,30.16,West,261,2.3,2.3,97,0.01,CLR,,0.06,WeatherDisplay:10.37,2013-11-22 22:40:00,
2013-11-22 17:45:00,53.9,53.1,30.16,WSW,253,2.3,2.3,97,0.00,,,0.06,WeatherDisplay:10.37,2013-11-22 22:45:00,
2013-11-22 17:50:00,53.9,53.1,30.16,WSW,241,3.5,3.5,97,0.00,,,0.06,WeatherDisplay:10.37,2013-11-22 22:50:00,
2013-11-22 17:55:00,53.9,53.1,30.16,WSW,257,1.2,1.2,97,0.00,,,0.06,WeatherDisplay:10.37,2013-11-22 22:55:00,
2013-11-22 18:00:00,53.9,53.1,30.16,WNW,285,2.3,2.3,97,0.01,RA,,0.07,WeatherDisplay:10.37,2013-11-22 23:00:00,
2013-11-22 18:05:00,53.8,53.0,30.16,WNW,282,0.0,0.0,97,0.01,RA,,0.07,WeatherDisplay:10.37,2013-11-22 23:05:00,
2013-11-22 18:10:00,53.7,52.9,30.16,West,267,1.2,1.2,97,0.01,,,0.07,WeatherDisplay:10.37,2013-11-22 23:10:00,
2013-11-22 18:15:00,53.7,52.9,30.16,West,278,0.0,0.0,97,0.01,,,0.07,WeatherDisplay:10.37,2013-11-22 23:15:00,
2013-11-22 18:20:00,53.7,52.9,30.16,WNW,302,1.2,1.2,97,0.01,,,0.07,WeatherDisplay:10.37,2013-11-22 23:20:00,
2013-11-22 18:25:00,53.6,52.8,30.16,WNW,282,4.6,4.6,97,0.01,,,0.07,WeatherDisplay:10.37,2013-11-22 23:25:00,
2013-11-22 18:30:00,53.6,52.8,30.16,WSW,257,2.3,2.3,97,0.01,,,0.07,WeatherDisplay:10.37,2013-11-22 23:30:00,
2013-11-22 18:35:00,53.6,52.8,30.16,WSW,250,2.0,2.0,97,0.01,,,0.07,WeatherDisplay:10.37,2013-11-22 23:35:00,
2013-11-22 18:40:00,53.6,53.0,30.16,West,265,2.3,2.3,98,0.01,,,0.08,WeatherDisplay:10.37,2013-11-22 23:40:00,
2013-11-22 18:45:00,53.6,53.0,30.16,WNW,289,3.5,3.5,98,0.02,RA,,0.08,WeatherDisplay:10.37,2013-11-22 23:45:00,
2013-11-22 18:50:00,53.6,53.0,30.16,WSW,257,2.3,2.3,98,0.02,RA,,0.08,WeatherDisplay:10.37,2013-11-22 23:50:00,
2013-11-22 18:55:00,53.6,53.0,30.16,NW,314,3.5,3.5,98,0.02,,,0.08,WeatherDisplay:10.37,2013-11-22 23:55:00,
2013-11-22 19:00:00,53.6,53.0,30.16,WSW,257,3.5,3.5,98,0.01,,,0.08,WeatherDisplay:10.37,2013-11-23 00:00:00,
2013-11-22 19:05:00,53.6,53.0,30.16,WSW,248,3.5,3.5,98,0.01,,,0.08,WeatherDisplay:10.37,2013-11-23 00:05:00,
2013-11-22 19:10:00,53.6,53.0,30.16,WNW,288,3.5,3.5,98,0.01,,,0.08,WeatherDisplay:10.37,2013-11-23 00:10:00,
2013-11-22 19:15:00,53.6,53.0,30.17,WSW,249,3.0,3.0,98,0.01,,,0.08,WeatherDisplay:10.37,2013-11-23 00:15:00,
2013-11-22 19:20:00,53.6,53.0,30.17,WSW,254,3.5,3.5,98,0.02,RA,,0.09,WeatherDisplay:10.37,2013-11-23 00:20:00,
2013-11-22 19:25:00,53.6,53.0,30.17,SW,226,3.0,3.0,98,0.02,RA,,0.09,WeatherDisplay:10.37,2013-11-23 00:25:00,
2013-11-22 19:30:00,53.6,53.0,30.17,WSW,244,2.3,2.3,98,0.03,RA,,0.10,WeatherDisplay:10.37,2013-11-23 00:30:00,
2013-11-22 19:35:00,53.6,53.0,30.17,WNW,286,3.5,3.5,98,0.03,RA,,0.10,WeatherDisplay:10.37,2013-11-23 00:35:00,
2013-11-22 19:40:00,53.6,53.0,30.17,West,272,3.5,3.5,98,0.03,,,0.10,WeatherDisplay:10.37,2013-11-23 00:40:00,
2013-11-22 19:45:00,53.6,53.0,30.17,West,262,3.5,3.5,98,0.02,,,0.10,WeatherDisplay:10.37,2013-11-23 00:45:00,
2013-11-22 19:50:00,53.6,53.0,30.17,West,260,3.5,3.5,98,0.02,,,0.10,WeatherDisplay:10.37,2013-11-23 00:50:00,
2013-11-22 19:55:00,53.6,53.0,30.17,WNW,302,2.3,2.3,98,0.02,,,0.10,WeatherDisplay:10.37,2013-11-23 00:55:00,
2013-11-22 20:00:00,53.6,53.0,30.17,WSW,254,3.5,3.5,98,0.02,,,0.10,WeatherDisplay:10.37,2013-11-23 01:00:00,
2013-11-22 20:05:00,53.6,53.0,30.17,WNW,295,3.5,3.5,98,0.02,,,0.10,WeatherDisplay:10.37,2013-11-23 01:05:00,
2013-11-22 20:10:00,53.6,53.0,30.17,West,278,3.5,3.5,98,0.02,,,0.10,WeatherDisplay:10.37,2013-11-23 01:10:00,
2013-11-22 20:15:00,53.6,53.0,30.17,West,276,1.2,1.2,98,0.03,RA,,0.11,WeatherDisplay:10.37,2013-11-23 01:15:00,
2013-11-22 20:20:00,53.6,53.0,30.17,WSW,250,2.3,2.3,98,0.02,RA,,0.11,WeatherDisplay:10.37,2013-11-23 01:20:00,
2013-11-22 20:25:00,53.5,52.9,30.17,West,271,1.2,1.2,98,0.03,RA,,0.12,WeatherDisplay:10.37,2013-11-23 01:25:00,
2013-11-22 20:30:00,53.5,52.9,30.17,West,276,2.3,2.3,98,0.02,RA,,0.12,WeatherDisplay:10.37,2013-11-23 01:30:00,
2013-11-22 20:35:00,53.5,52.9,30.17,WNW,297,2.3,2.3,98,0.03,RA,,0.13,WeatherDisplay:10.37,2013-11-23 01:35:00,
2013-11-22 20:40:00,53.4,52.8,30.17,WSW,251,3.5,3.5,98,0.04,RA,,0.14,WeatherDisplay:10.37,2013-11-23 01:40:00,
2013-11-22 20:45:00,53.4,52.8,30.17,WSW,257,5.8,5.8,98,0.04,RA,,0.14,WeatherDisplay:10.37,2013-11-23 01:45:00,
2013-11-22 20:51:00,53.4,52.8,30.17,West,269,4.6,4.6,98,0.04,,,0.15,WeatherDisplay:10.37,2013-11-23 01:51:00,
2013-11-22 20:55:00,53.4,52.8,30.17,SW,233,5.8,5.8,98,0.05,RA,,0.15,WeatherDisplay:10.37,2013-11-23 01:55:00,
2013-11-22 21:01:00,53.4,52.8,30.17,WSW,253,3.5,3.5,98,0.05,RA,,0.15,WeatherDisplay:10.37,2013-11-23 02:01:00,
2013-11-22 21:06:00,53.4,52.8,30.17,WSW,253,2.3,2.3,98,0.05,,,0.15,WeatherDisplay:10.37,2013-11-23 02:06:00,
2013-11-22 21:11:00,53.4,52.8,30.17,WNW,285,1.2,1.2,98,0.05,,,0.15,WeatherDisplay:10.37,2013-11-23 02:11:00,
2013-11-22 21:16:00,53.4,52.8,30.17,WSW,257,2.3,2.3,98,0.04,,,0.15,WeatherDisplay:10.37,2013-11-23 02:16:00,
2013-11-22 21:21:00,53.4,52.8,30.17,WSW,245,3.5,3.5,98,0.04,,,0.15,WeatherDisplay:10.37,2013-11-23 02:21:00,
2013-11-22 21:26:00,53.4,52.8,30.17,WSW,255,3.5,3.5,98,0.03,,,0.15,WeatherDisplay:10.37,2013-11-23 02:26:00,
2013-11-22 21:31:00,53.4,52.8,30.17,West,276,3.0,3.0,98,0.03,,,0.15,WeatherDisplay:10.37,2013-11-23 02:31:00,
2013-11-22 21:36:00,53.4,52.8,30.17,West,271,1.2,1.2,98,0.02,,,0.15,WeatherDisplay:10.37,2013-11-23 02:36:00,
2013-11-22 21:41:00,53.4,52.8,30.17,WSW,243,3.5,3.5,98,0.01,,,0.15,WeatherDisplay:10.37,2013-11-23 02:41:00,
2013-11-22 21:46:00,53.4,52.8,30.17,WSW,251,2.3,2.3,98,0.01,,,0.15,WeatherDisplay:10.37,2013-11-23 02:46:00,
2013-11-22 21:51:00,53.3,52.8,30.17,West,276,2.3,2.3,98,0.00,,,0.15,WeatherDisplay:10.37,2013-11-23 02:51:00,
2013-11-22 21:56:00,53.3,52.8,30.17,WSW,251,2.3,2.3,98,0.00,,,0.15,WeatherDisplay:10.37,2013-11-23 02:56:00,
2013-11-22 22:01:00,53.3,52.8,30.16,West,262,1.2,1.2,98,0.01,RA,,0.16,WeatherDisplay:10.37,2013-11-23 03:01:00,
2013-11-22 22:06:00,53.2,52.7,30.16,WSW,243,2.3,2.3,98,0.01,RA,,0.16,WeatherDisplay:10.37,2013-11-23 03:06:00,
2013-11-22 22:11:00,53.3,52.8,30.17,WSW,239,3.5,3.5,98,0.01,,,0.16,WeatherDisplay:10.37,2013-11-23 03:11:00,
2013-11-22 22:16:00,53.2,52.7,30.17,West,263,2.3,2.3,98,0.01,,,0.16,WeatherDisplay:10.37,2013-11-23 03:16:00,
2013-11-22 22:21:00,53.2,52.7,30.16,WSW,253,3.5,3.5,98,0.01,,,0.16,WeatherDisplay:10.37,2013-11-23 03:21:00,
2013-11-22 22:26:00,53.2,52.7,30.16,West,276,3.5,3.5,98,0.01,,,0.16,WeatherDisplay:10.37,2013-11-23 03:26:00,
2013-11-22 22:31:00,53.1,52.6,30.17,WSW,256,2.3,2.3,98,0.01,,,0.16,WeatherDisplay:10.37,2013-11-23 03:31:00,
2013-11-22 22:36:00,53.1,52.6,30.16,West,271,2.3,2.3,98,0.01,,,0.16,WeatherDisplay:10.37,2013-11-23 03:36:00,
2013-11-22 22:41:00,53.1,52.6,30.16,West,260,2.3,2.3,98,0.01,,,0.16,WeatherDisplay:10.37,2013-11-23 03:41:00,
2013-11-22 22:46:00,53.0,52.5,30.16,WNW,293,4.6,4.6,98,0.01,,,0.16,WeatherDisplay:10.37,2013-11-23 03:46:00,
2013-11-22 22:51:00,52.9,52.4,30.16,WSW,257,2.3,2.3,98,0.01,,,0.16,WeatherDisplay:10.37,2013-11-23 03:51:00,
2013-11-22 22:56:00,52.8,52.3,30.15,West,269,0.0,0.2,98,0.01,,,0.16,WeatherDisplay:10.37,2013-11-23 03:56:00,
2013-11-22 23:01:00,52.6,52.1,30.16,WSW,245,2.3,2.3,98,0.00,,,0.16,WeatherDisplay:10.37,2013-11-23 04:01:00,
2013-11-22 23:06:00,52.6,52.1,30.16,WSW,253,1.2,1.2,98,0.00,,,0.16,WeatherDisplay:10.37,2013-11-23 04:06:00,
2013-11-22 23:11:00,52.4,51.9,30.16,West,267,1.2,1.2,98,0.00,,,0.16,WeatherDisplay:10.37,2013-11-23 04:11:00,
2013-11-22 23:16:00,52.3,51.5,30.17,West,279,0.0,0.0,97,0.00,,,0.16,WeatherDisplay:10.37,2013-11-23 04:16:00,
2013-11-22 23:21:00,52.2,51.4,30.17,West,279,1.2,1.2,97,0.00,,,0.16,WeatherDisplay:10.37,2013-11-23 04:21:00,
2013-11-22 23:26:00,52.1,51.3,30.17,WSW,257,1.2,1.2,97,0.00,,,0.16,WeatherDisplay:10.37,2013-11-23 04:26:00,
2013-11-22 23:31:00,52.0,51.2,30.16,WNW,282,2.0,2.0,97,0.00,,,0.16,WeatherDisplay:10.37,2013-11-23 04:31:00,
2013-11-22 23:36:00,51.9,51.1,30.17,WSW,239,1.2,1.2,97,0.00,,,0.16,WeatherDisplay:10.37,2013-11-23 04:36:00,
2013-11-22 23:41:00,51.8,50.7,30.17,West,269,3.5,3.5,96,0.00,,,0.16,WeatherDisplay:10.37,2013-11-23 04:41:00,
2013-11-22 23:46:00,51.8,50.7,30.17,WSW,251,2.3,2.3,96,0.00,,,0.16,WeatherDisplay:10.37,2013-11-23 04:46:00,
2013-11-22 23:51:00,51.8,50.7,30.17,WNW,295,3.5,3.5,96,0.00,,,0.16,WeatherDisplay:10.37,2013-11-23 04:51:00,
2013-11-22 23:56:00,51.7,50.6,30.17,NW,312,5.0,5.0,96,0.00,,,0.16,WeatherDisplay:10.37,2013-11-23 04:56:00,